Weather at Sultan Thaha Airport

Public forecast

Using degrees Celsius for public forecast. Weather courtesy of forecast.io.

Closest aviation weather report (METAR) to Sultan Thaha Airport

Closest report is Sultan Mahmud Badaruddin II Airport, 98.5 nm (182.4 km) SE.

2024/06/18 04:00 (retrieved 32 minutes ago)

WIPP 180400Z 19004KT 120V230 9999 SCT010 30/25 Q1010 NOSIG

Closest aviation forecast (TAF) to Sultan Thaha Airport

Forecast is more than 6 hours old.

Closest forecast is Toraja Airport, 980.5 nm (1,815.9 km) E.

2024/06/17 18:57 (retrieved 10 hours ago)

TAF WAFB 171700Z 1718/1806 00000KT 7000 SCT017 TEMPO 1719/1722 2000 BR